createdAt,value
2023-05-05T00:00:05.895Z,12.62
2023-05-05T00:02:33.540Z,13.03
2023-05-05T00:05:00.992Z,13.23
2023-05-05T00:07:29.738Z,12.71
2023-05-05T00:09:57.153Z,12.28
2023-05-05T00:12:24.630Z,12.81
2023-05-05T00:14:52.009Z,12.83
2023-05-05T00:17:19.499Z,12.36
2023-05-05T00:19:46.971Z,13.16
2023-05-05T00:22:14.344Z,13.02
2023-05-05T00:24:43.061Z,13.08
2023-05-05T00:27:11.421Z,13.92
2023-05-05T00:29:38.957Z,13.50
2023-05-05T00:32:06.521Z,13.16
2023-05-05T00:34:33.975Z,12.95
2023-05-05T00:37:01.618Z,13.21
2023-05-05T00:39:29.502Z,13.42
2023-05-05T00:41:59.388Z,13.53
2023-05-05T00:44:38.433Z,13.30
2023-05-05T00:47:06.678Z,12.69
2023-05-05T00:49:34.471Z,12.91
2023-05-05T00:52:02.194Z,12.88
2023-05-05T00:54:29.726Z,12.80
2023-05-05T00:56:58.710Z,12.68
2023-05-05T00:59:26.996Z,13.06
2023-05-05T01:01:54.450Z,13.33
2023-05-05T01:04:22.063Z,13.07
2023-05-05T01:06:55.013Z,12.93
2023-05-05T01:09:33.307Z,13.09
2023-05-05T01:12:11.354Z,13.27
2023-05-05T01:14:42.017Z,13.07
2023-05-05T01:17:17.081Z,12.58
2023-05-05T01:20:09.405Z,13.10
2023-05-05T01:22:40.367Z,12.90
2023-05-05T01:25:31.643Z,12.67
2023-05-05T01:28:20.320Z,12.73
2023-05-05T01:31:07.002Z,12.76
2023-05-05T01:33:42.872Z,13.60
2023-05-05T01:36:14.192Z,13.06
2023-05-05T01:38:45.921Z,13.37
2023-05-05T01:41:17.853Z,12.49
2023-05-05T01:43:48.309Z,12.66
2023-05-05T01:46:16.919Z,13.36
2023-05-05T01:48:47.378Z,13.33
2023-05-05T01:51:17.978Z,13.03
2023-05-05T01:53:47.093Z,13.33
2023-05-05T01:56:16.356Z,12.30
2023-05-05T01:58:46.068Z,11.97
2023-05-05T02:01:14.751Z,12.65
2023-05-05T02:03:44.826Z,12.29
2023-05-05T02:06:16.201Z,12.51
2023-05-05T02:08:44.708Z,12.49
2023-05-05T02:11:13.490Z,12.50
2023-05-05T02:13:43.246Z,12.00
2023-05-05T02:16:11.874Z,12.57
2023-05-05T02:18:39.397Z,12.74
2023-05-05T02:21:08.188Z,12.33
2023-05-05T02:23:37.104Z,12.24
2023-05-05T02:26:08.093Z,11.86
2023-05-05T02:28:42.131Z,12.24
2023-05-05T02:31:11.799Z,12.53
2023-05-05T02:33:41.340Z,12.58
2023-05-05T02:36:13.352Z,12.32
2023-05-05T02:38:45.882Z,12.63
2023-05-05T02:41:17.628Z,11.71
2023-05-05T02:43:47.141Z,12.28
2023-05-05T02:46:14.593Z,12.26
2023-05-05T02:48:42.049Z,12.35
2023-05-05T02:51:09.460Z,12.18
2023-05-05T02:53:37.089Z,12.54
2023-05-05T02:56:15.907Z,12.26
2023-05-05T02:58:49.445Z,12.40
2023-05-05T03:01:28.986Z,12.09
2023-05-05T03:04:05.519Z,12.26
2023-05-05T03:06:40.061Z,12.47
2023-05-05T03:09:10.630Z,11.83
2023-05-05T03:11:43.067Z,11.85
2023-05-05T03:14:12.835Z,12.07
2023-05-05T03:16:42.715Z,11.52
2023-05-05T03:19:12.556Z,11.73
2023-05-05T03:21:40.429Z,11.87
2023-05-05T03:24:16.937Z,12.11
2023-05-05T03:26:47.553Z,11.91
2023-05-05T03:29:16.098Z,11.91
2023-05-05T03:31:43.643Z,12.03
2023-05-05T03:34:11.288Z,12.03
2023-05-05T03:36:39.237Z,12.28
2023-05-05T03:39:06.678Z,12.46
2023-05-05T03:41:34.167Z,11.86
2023-05-05T03:44:02.906Z,11.95
2023-05-05T03:46:30.304Z,11.65
2023-05-05T03:48:57.814Z,11.76
2023-05-05T03:51:25.266Z,11.45
2023-05-05T03:53:52.654Z,12.20
2023-05-05T03:56:20.084Z,12.16
2023-05-05T03:58:47.532Z,12.22
2023-05-05T04:01:16.258Z,11.68
2023-05-05T04:03:43.738Z,11.58
2023-05-05T04:06:11.486Z,11.85
2023-05-05T04:08:38.909Z,11.96
2023-05-05T04:11:06.409Z,12.37
2023-05-05T04:13:33.816Z,11.74
2023-05-05T04:16:01.252Z,11.91
2023-05-05T04:18:30.011Z,11.54
2023-05-05T04:20:57.397Z,11.69
2023-05-05T04:23:24.810Z,11.63
2023-05-05T04:25:52.230Z,11.80
2023-05-05T04:28:21.598Z,11.81
2023-05-05T04:30:49.477Z,12.14
2023-05-05T04:33:16.885Z,12.49
2023-05-05T04:35:45.653Z,12.40
2023-05-05T04:38:13.031Z,12.82
2023-05-05T04:40:41.137Z,12.73
2023-05-05T04:43:08.565Z,13.41
2023-05-05T04:45:36.024Z,12.98
2023-05-05T04:48:05.088Z,13.24
2023-05-05T04:50:32.646Z,13.55
2023-05-05T04:53:01.378Z,13.30
2023-05-05T04:55:29.276Z,12.79
2023-05-05T04:57:56.744Z,12.89
2023-05-05T05:00:24.297Z,13.09
2023-05-05T05:02:52.425Z,13.44
2023-05-05T05:05:20.091Z,13.72
2023-05-05T05:07:47.461Z,12.99
2023-05-05T05:10:16.230Z,13.45
2023-05-05T05:12:43.674Z,13.29
2023-05-05T05:15:11.663Z,12.50
2023-05-05T05:17:39.090Z,12.95
2023-05-05T05:20:08.365Z,13.14
2023-05-05T05:22:38.288Z,14.28
2023-05-05T05:25:06.398Z,13.80
2023-05-05T05:27:35.204Z,12.89
2023-05-05T05:30:03.070Z,13.19
2023-05-05T05:32:30.749Z,13.64
2023-05-05T05:34:58.177Z,14.40
2023-05-05T05:37:29.078Z,14.66
2023-05-05T05:39:56.851Z,15.51
2023-05-05T05:42:24.277Z,15.37
2023-05-05T05:44:53.068Z,15.91
2023-05-05T05:47:20.471Z,14.16
2023-05-05T05:49:47.882Z,15.66
2023-05-05T05:52:15.338Z,15.33
2023-05-05T05:54:42.757Z,16.16
2023-05-05T05:57:10.320Z,15.78
2023-05-05T05:59:37.999Z,15.06
2023-05-05T06:02:07.146Z,16.48
2023-05-05T06:04:34.638Z,15.27
2023-05-05T06:07:02.224Z,16.67
2023-05-05T06:09:29.752Z,16.10
2023-05-05T06:11:57.152Z,15.33
2023-05-05T06:14:24.682Z,15.00
2023-05-05T06:16:52.780Z,15.51
2023-05-05T06:19:21.596Z,15.31
2023-05-05T06:21:49.089Z,15.34
2023-05-05T06:24:16.513Z,14.57
2023-05-05T06:26:43.904Z,14.14
2023-05-05T06:29:12.342Z,14.76
2023-05-05T06:31:40.016Z,15.96
2023-05-05T06:34:07.590Z,16.40
2023-05-05T06:36:36.489Z,15.17
2023-05-05T06:39:03.940Z,14.17
2023-05-05T06:41:31.360Z,14.25
2023-05-05T06:43:58.801Z,14.82
2023-05-05T06:46:26.364Z,15.20
2023-05-05T06:48:53.895Z,15.40
2023-05-05T06:51:22.978Z,15.56
2023-05-05T06:53:51.994Z,14.21
2023-05-05T06:56:19.502Z,14.92
2023-05-05T06:58:46.905Z,15.80
2023-05-05T07:01:14.653Z,15.90
2023-05-05T07:03:42.125Z,15.49
2023-05-05T07:06:09.692Z,14.55
2023-05-05T07:08:37.091Z,14.99
2023-05-05T07:11:05.982Z,15.03
2023-05-05T07:13:33.513Z,14.58
2023-05-05T07:16:01.188Z,15.64
2023-05-05T07:18:28.614Z,14.72
2023-05-05T07:20:56.002Z,14.40
2023-05-05T07:23:23.409Z,14.99
2023-05-05T07:25:50.837Z,15.93
2023-05-05T07:28:19.655Z,15.56
2023-05-05T07:30:47.115Z,15.21
2023-05-05T07:33:14.639Z,14.91
2023-05-05T07:35:42.049Z,14.88
2023-05-05T07:38:10.944Z,14.67
2023-05-05T07:40:38.443Z,15.27
2023-05-05T07:43:05.998Z,16.50
2023-05-05T07:45:35.040Z,15.33
2023-05-05T07:48:02.759Z,14.60
2023-05-05T07:50:30.427Z,14.95
2023-05-05T07:53:10.572Z,14.99
2023-05-05T07:55:41.858Z,15.75
2023-05-05T07:58:10.851Z,15.50
2023-05-05T08:00:40.057Z,15.50
2023-05-05T08:03:11.304Z,16.00
2023-05-05T08:05:39.409Z,15.18
2023-05-05T08:08:07.057Z,14.94
2023-05-05T08:10:34.538Z,15.35
2023-05-05T08:13:02.082Z,15.48
2023-05-05T08:15:29.602Z,16.57
2023-05-05T08:17:58.328Z,16.49
2023-05-05T08:20:29.241Z,16.24
2023-05-05T08:22:56.670Z,15.99
2023-05-05T08:25:24.590Z,15.78
2023-05-05T08:27:51.958Z,15.71
2023-05-05T08:30:20.859Z,16.45
2023-05-05T08:32:48.539Z,16.07
2023-05-05T08:35:17.485Z,16.05
2023-05-05T08:37:44.980Z,16.51
2023-05-05T08:40:14.702Z,15.90
2023-05-05T08:42:42.580Z,16.15
2023-05-05T08:45:11.525Z,16.49
2023-05-05T08:47:40.359Z,16.60
2023-05-05T08:50:11.813Z,16.65
2023-05-05T08:52:44.000Z,16.34
2023-05-05T08:55:16.126Z,16.74
2023-05-05T08:57:50.544Z,17.08
2023-05-05T09:00:19.548Z,17.88
2023-05-05T09:02:48.169Z,17.26
2023-05-05T09:05:16.560Z,16.92
2023-05-05T09:07:46.710Z,16.88
2023-05-05T09:10:14.322Z,17.33
2023-05-05T09:12:42.297Z,17.57
2023-05-05T09:15:11.553Z,17.46
2023-05-05T09:17:39.705Z,16.98
2023-05-05T09:20:09.077Z,17.36
2023-05-05T09:22:37.987Z,17.55
2023-05-05T09:25:08.444Z,18.32
2023-05-05T09:27:40.810Z,17.90
2023-05-05T09:30:09.905Z,17.94
2023-05-05T09:32:48.879Z,17.83
2023-05-05T09:35:17.223Z,17.59
2023-05-05T09:37:45.218Z,18.75
2023-05-05T09:40:15.801Z,19.36
2023-05-05T09:42:44.566Z,18.73
2023-05-05T09:45:27.297Z,18.01
2023-05-05T09:47:59.773Z,17.70
2023-05-05T09:50:30.509Z,18.28
2023-05-05T09:52:59.814Z,19.08
2023-05-05T09:55:30.843Z,19.27
2023-05-05T09:57:58.397Z,19.13
2023-05-05T10:00:38.923Z,18.40
2023-05-05T10:03:06.788Z,18.36
2023-05-05T10:05:34.258Z,18.92
2023-05-05T10:08:13.415Z,19.24
2023-05-05T10:10:48.616Z,18.78
2023-05-05T10:13:19.000Z,18.85
2023-05-05T10:15:48.171Z,19.09
2023-05-05T10:18:19.851Z,19.31
2023-05-05T10:20:51.207Z,19.84
2023-05-05T10:23:21.256Z,19.10
2023-05-05T10:25:59.947Z,19.26
2023-05-05T10:28:33.434Z,18.90
2023-05-05T10:31:04.245Z,19.72
2023-05-05T10:33:52.973Z,19.95
2023-05-05T10:36:21.496Z,19.40
2023-05-05T10:38:51.055Z,19.40
2023-05-05T10:41:21.472Z,18.86
2023-05-05T10:43:49.270Z,19.27
2023-05-05T10:46:16.925Z,19.95
2023-05-05T10:48:56.848Z,19.06
2023-05-05T10:51:40.048Z,19.25
2023-05-05T10:54:14.986Z,20.23
2023-05-05T10:56:44.284Z,20.03
2023-05-05T10:59:40.219Z,19.64
2023-05-05T11:02:19.837Z,19.32
2023-05-05T11:05:04.468Z,20.32
2023-05-05T11:07:32.837Z,20.02
2023-05-05T11:10:02.245Z,19.93
2023-05-05T11:12:31.840Z,19.61
2023-05-05T11:15:37.364Z,19.10
2023-05-05T11:18:07.503Z,19.47
2023-05-05T11:21:03.792Z,20.12
2023-05-05T11:23:31.819Z,20.57
2023-05-05T11:25:59.230Z,20.20
2023-05-05T11:28:30.962Z,20.67
2023-05-05T11:31:18.204Z,19.76
2023-05-05T11:33:46.117Z,20.21
2023-05-05T11:36:15.031Z,20.49
2023-05-05T11:38:53.639Z,20.73
2023-05-05T11:41:34.198Z,20.73
2023-05-05T11:44:13.968Z,20.15
2023-05-05T11:46:42.656Z,20.08
2023-05-05T11:49:10.181Z,19.93
2023-05-05T11:51:37.719Z,20.23
2023-05-05T11:54:05.701Z,20.01
2023-05-05T11:56:33.132Z,19.87
2023-05-05T11:59:09.684Z,19.82
2023-05-05T12:01:40.856Z,20.39
2023-05-05T12:04:09.347Z,20.86
2023-05-05T12:06:36.949Z,21.35
2023-05-05T12:09:04.908Z,20.19
2023-05-05T12:11:32.339Z,20.11
2023-05-05T12:14:10.284Z,21.19
2023-05-05T12:16:39.371Z,20.25
2023-05-05T12:19:07.955Z,21.07
2023-05-05T12:21:36.251Z,20.44
2023-05-05T12:24:03.721Z,20.58
2023-05-05T12:26:32.384Z,20.33
2023-05-05T12:29:01.197Z,20.41
2023-05-05T12:31:35.811Z,20.79
2023-05-05T12:34:06.236Z,20.45
2023-05-05T12:36:34.622Z,20.15
2023-05-05T12:39:02.543Z,20.26
2023-05-05T12:41:29.980Z,19.74
2023-05-05T12:43:58.227Z,19.45
2023-05-05T12:46:26.458Z,19.72
2023-05-05T12:49:01.528Z,19.52
2023-05-05T12:51:31.320Z,19.75
2023-05-05T12:54:03.606Z,19.44
2023-05-05T12:56:36.539Z,19.97
2023-05-05T12:59:05.373Z,19.82
2023-05-05T13:01:33.347Z,20.55
2023-05-05T13:04:08.399Z,19.86
2023-05-05T13:06:37.721Z,19.98
2023-05-05T13:09:05.874Z,20.04
2023-05-05T13:11:36.223Z,19.85
2023-05-05T13:14:04.103Z,19.97
2023-05-05T13:16:31.552Z,19.58
2023-05-05T13:18:58.955Z,19.61
2023-05-05T13:21:26.464Z,19.99
2023-05-05T13:24:01.583Z,20.31
2023-05-05T13:26:40.445Z,21.08
2023-05-05T13:29:07.833Z,21.17
2023-05-05T13:31:35.489Z,21.03
2023-05-05T13:34:03.882Z,20.79
2023-05-05T13:36:31.359Z,20.78
2023-05-05T13:39:00.113Z,20.15
2023-05-05T13:41:27.638Z,20.21
2023-05-05T13:43:55.047Z,20.02
2023-05-05T13:46:22.591Z,20.48
2023-05-05T13:48:52.471Z,20.66
2023-05-05T13:51:23.543Z,20.64
2023-05-05T13:53:50.937Z,20.41
2023-05-05T13:56:20.023Z,20.16
2023-05-05T13:58:47.434Z,20.38
2023-05-05T14:01:14.894Z,20.72
2023-05-05T14:03:42.352Z,20.59
2023-05-05T14:06:09.938Z,20.51
2023-05-05T14:08:37.597Z,20.42
2023-05-05T14:11:05.100Z,20.14
2023-05-05T14:13:33.862Z,20.60
2023-05-05T14:16:01.338Z,20.53
2023-05-05T14:18:29.036Z,21.31
2023-05-05T14:20:56.440Z,21.20
2023-05-05T14:23:23.967Z,21.83
2023-05-05T14:25:51.385Z,21.97
2023-05-05T14:28:18.840Z,20.72
2023-05-05T14:30:47.547Z,20.17
2023-05-05T14:33:15.038Z,20.25
2023-05-05T14:35:42.596Z,20.22
2023-05-05T14:38:10.108Z,20.23
2023-05-05T14:40:37.560Z,20.27
2023-05-05T14:43:04.968Z,20.66
2023-05-05T14:45:32.585Z,20.80
2023-05-05T14:48:01.394Z,20.53
2023-05-05T14:50:28.860Z,20.89
2023-05-05T14:52:56.282Z,20.54
2023-05-05T14:55:24.915Z,20.93
2023-05-05T14:57:52.507Z,20.49
2023-05-05T15:00:20.397Z,20.56
2023-05-05T15:02:48.988Z,20.50
2023-05-05T15:05:17.810Z,20.53
2023-05-05T15:07:45.269Z,20.80
2023-05-05T15:10:12.859Z,20.90
2023-05-05T15:12:40.661Z,21.14
2023-05-05T15:15:09.509Z,20.32
2023-05-05T15:17:38.629Z,20.39
2023-05-05T15:20:07.495Z,20.02
2023-05-05T15:22:36.319Z,20.07
2023-05-05T15:25:03.739Z,20.19
2023-05-05T15:27:31.748Z,20.97
2023-05-05T15:29:59.197Z,21.11
2023-05-05T15:32:26.564Z,20.81
2023-05-05T15:34:55.091Z,20.57
2023-05-05T15:37:22.525Z,20.11
2023-05-05T15:39:51.242Z,20.05
2023-05-05T15:42:18.668Z,20.13
2023-05-05T15:44:46.082Z,19.99
2023-05-05T15:47:13.792Z,19.93
2023-05-05T15:49:41.210Z,19.68
2023-05-05T15:52:08.741Z,19.56
2023-05-05T15:54:36.189Z,19.76
2023-05-05T15:57:04.983Z,19.57
2023-05-05T15:59:32.629Z,19.54
2023-05-05T16:02:00.219Z,19.54
2023-05-05T16:04:27.707Z,19.81
2023-05-05T16:06:56.126Z,20.03
2023-05-05T16:09:23.522Z,19.67
2023-05-05T16:11:51.056Z,19.68
2023-05-05T16:14:19.762Z,19.51
2023-05-05T16:16:47.288Z,19.58
2023-05-05T16:19:14.780Z,19.64
2023-05-05T16:21:42.188Z,19.66
2023-05-05T16:24:09.735Z,19.36
2023-05-05T16:26:37.557Z,19.30
2023-05-05T16:29:04.981Z,19.31
2023-05-05T16:31:34.027Z,19.13
2023-05-05T16:34:01.550Z,19.48
2023-05-05T16:36:29.299Z,19.71
2023-05-05T16:38:57.182Z,19.58
2023-05-05T16:41:25.888Z,19.95
2023-05-05T16:43:53.562Z,19.41
2023-05-05T16:46:20.984Z,19.59
2023-05-05T16:48:49.774Z,19.54
2023-05-05T16:51:17.182Z,18.96
2023-05-05T16:53:44.611Z,19.10
2023-05-05T16:56:12.667Z,19.16
2023-05-05T16:58:40.360Z,19.15
2023-05-05T17:01:07.896Z,19.18
2023-05-05T17:03:35.830Z,19.10
2023-05-05T17:06:04.975Z,19.00
2023-05-05T17:08:32.430Z,19.05
2023-05-05T17:10:59.876Z,18.82
2023-05-05T17:13:27.310Z,18.66
2023-05-05T17:15:54.821Z,18.56
2023-05-05T17:18:25.614Z,18.70
2023-05-05T17:20:53.102Z,19.38
2023-05-05T17:23:22.066Z,18.85
2023-05-05T17:25:49.495Z,18.99
2023-05-05T17:28:17.507Z,18.79
2023-05-05T17:30:45.178Z,18.49
2023-05-05T17:33:12.653Z,18.26
2023-05-05T17:35:40.067Z,18.52
2023-05-05T17:38:07.509Z,18.52
2023-05-05T17:40:36.216Z,18.49
2023-05-05T17:43:03.612Z,18.33
2023-05-05T17:45:31.340Z,18.45
2023-05-05T17:47:58.884Z,18.76
2023-05-05T17:50:26.409Z,18.12
2023-05-05T17:52:53.817Z,18.64
2023-05-05T17:55:21.369Z,17.92
2023-05-05T17:57:50.228Z,17.62
2023-05-05T18:00:18.281Z,17.93
2023-05-05T18:02:46.203Z,17.98
2023-05-05T18:05:14.666Z,17.70
2023-05-05T18:07:42.184Z,17.80
2023-05-05T18:10:11.642Z,17.80
2023-05-05T18:12:39.145Z,17.46
2023-05-05T18:15:09.794Z,17.68
2023-05-05T18:17:37.516Z,17.76
2023-05-05T18:20:06.916Z,17.73
2023-05-05T18:22:34.530Z,17.84
2023-05-05T18:25:01.933Z,17.81
2023-05-05T18:27:32.365Z,17.39
2023-05-05T18:29:59.748Z,17.52
2023-05-05T18:32:28.659Z,17.74
2023-05-05T18:34:56.128Z,17.11
2023-05-05T18:37:23.510Z,17.35
2023-05-05T18:39:50.893Z,17.48
2023-05-05T18:42:18.281Z,17.28
2023-05-05T18:44:45.744Z,17.50
2023-05-05T18:47:13.453Z,17.73
2023-05-05T18:49:42.161Z,17.29
2023-05-05T18:52:09.598Z,17.49
2023-05-05T18:54:37.935Z,17.61
2023-05-05T18:57:05.497Z,17.89
2023-05-05T18:59:32.904Z,17.14
2023-05-05T19:02:00.482Z,16.92
2023-05-05T19:04:31.752Z,16.78
2023-05-05T19:07:00.903Z,16.69
2023-05-05T19:09:28.805Z,16.66
2023-05-05T19:11:56.233Z,16.93
2023-05-05T19:14:23.819Z,16.91
2023-05-05T19:16:51.611Z,16.72
2023-05-05T19:19:19.040Z,16.74
2023-05-05T19:21:46.554Z,16.47
2023-05-05T19:24:15.483Z,16.58
2023-05-05T19:26:44.126Z,16.39
2023-05-05T19:29:11.761Z,16.69
2023-05-05T19:31:39.243Z,16.73
2023-05-05T19:34:07.009Z,16.46
2023-05-05T19:36:35.301Z,16.54
2023-05-05T19:39:04.068Z,16.10
2023-05-05T19:41:35.154Z,16.26
2023-05-05T19:44:02.968Z,16.56
2023-05-05T19:46:30.431Z,16.53
2023-05-05T19:48:57.961Z,17.17
2023-05-05T19:51:25.388Z,16.81
2023-05-05T19:53:52.806Z,17.07
2023-05-05T19:56:21.583Z,16.72
2023-05-05T19:58:58.816Z,16.34
2023-05-05T20:01:26.902Z,16.34
2023-05-05T20:03:56.142Z,16.18
2023-05-05T20:06:24.436Z,15.42
2023-05-05T20:08:52.237Z,15.18
2023-05-05T20:11:21.263Z,15.08
2023-05-05T20:13:50.042Z,15.02
2023-05-05T20:16:19.373Z,15.03
2023-05-05T20:18:46.875Z,14.95
2023-05-05T20:21:14.485Z,15.05
2023-05-05T20:23:42.795Z,15.36
2023-05-05T20:26:10.563Z,15.21
2023-05-05T20:28:39.133Z,15.02
2023-05-05T20:31:07.039Z,15.17
2023-05-05T20:33:35.857Z,15.17
2023-05-05T20:36:03.360Z,15.31
2023-05-05T20:38:30.800Z,15.75
2023-05-05T20:40:58.230Z,15.42
2023-05-05T20:43:26.279Z,15.13
2023-05-05T20:45:53.908Z,15.07
2023-05-05T20:48:21.389Z,15.20
2023-05-05T20:50:51.101Z,15.10
2023-05-05T20:53:20.801Z,15.17
2023-05-05T20:55:49.743Z,14.95
2023-05-05T20:58:17.434Z,14.83
2023-05-05T21:00:45.000Z,14.98
2023-05-05T21:03:12.578Z,14.99
2023-05-05T21:05:40.912Z,15.17
2023-05-05T21:08:09.940Z,15.41
2023-05-05T21:10:37.599Z,14.90
2023-05-05T21:13:05.097Z,15.38
2023-05-05T21:15:33.295Z,15.21
2023-05-05T21:18:02.081Z,14.95
2023-05-05T21:20:29.724Z,14.92
2023-05-05T21:22:57.493Z,15.16
2023-05-05T21:25:26.886Z,15.47
2023-05-05T21:27:56.434Z,15.25
2023-05-05T21:30:24.687Z,15.18
2023-05-05T21:32:53.487Z,15.33
2023-05-05T21:35:21.073Z,15.13
2023-05-05T21:37:49.599Z,14.65
2023-05-05T21:40:19.009Z,15.22
2023-05-05T21:42:47.798Z,15.04
2023-05-05T21:45:15.258Z,14.84
2023-05-05T21:47:45.193Z,14.79
2023-05-05T21:50:13.377Z,14.66
2023-05-05T21:52:41.366Z,15.10
2023-05-05T21:55:11.046Z,14.80
2023-05-05T21:57:38.479Z,15.09
2023-05-05T22:00:09.202Z,15.00
2023-05-05T22:02:36.987Z,14.78
2023-05-05T22:05:05.029Z,14.96
2023-05-05T22:07:33.094Z,14.83
2023-05-05T22:10:01.622Z,15.21
2023-05-05T22:12:29.126Z,14.72
2023-05-05T22:14:56.623Z,14.65
2023-05-05T22:17:25.401Z,14.54
2023-05-05T22:19:52.892Z,14.98
2023-05-05T22:22:20.658Z,15.39
2023-05-05T22:24:48.131Z,15.14
2023-05-05T22:27:15.829Z,15.10
2023-05-05T22:29:43.314Z,14.99
2023-05-05T22:32:11.276Z,15.10
2023-05-05T22:34:40.052Z,14.43
2023-05-05T22:37:07.454Z,15.40
2023-05-05T22:39:34.971Z,14.17
2023-05-05T22:42:03.686Z,14.56
2023-05-05T22:44:31.184Z,14.01
2023-05-05T22:46:58.738Z,14.96
2023-05-05T22:49:26.388Z,14.42
2023-05-05T22:51:55.341Z,14.44
2023-05-05T22:54:22.774Z,14.70
2023-05-05T22:56:50.910Z,14.44
2023-05-05T22:59:18.273Z,13.97
2023-05-05T23:01:45.690Z,14.72
2023-05-05T23:04:13.207Z,14.56
2023-05-05T23:06:41.329Z,14.13
2023-05-05T23:09:10.319Z,14.58
2023-05-05T23:11:37.745Z,14.02
2023-05-05T23:14:05.307Z,14.63
2023-05-05T23:16:32.754Z,14.32
2023-05-05T23:19:00.329Z,13.41
2023-05-05T23:21:28.420Z,14.19
2023-05-05T23:23:56.759Z,13.91
2023-05-05T23:26:25.769Z,14.08
2023-05-05T23:28:53.201Z,13.51
2023-05-05T23:31:20.633Z,13.09
2023-05-05T23:33:48.071Z,13.10
2023-05-05T23:36:15.459Z,13.31
2023-05-05T23:38:42.838Z,13.07
2023-05-05T23:41:10.254Z,13.31
2023-05-05T23:43:39.004Z,13.45
2023-05-05T23:46:06.474Z,13.63
2023-05-05T23:48:34.043Z,14.17
2023-05-05T23:51:01.449Z,13.97
2023-05-05T23:53:28.865Z,13.90
2023-05-05T23:55:56.613Z,14.26
2023-05-05T23:58:23.982Z,13.75
